Didsbury, Canada
Current Conditions -  °F | °C
As of 3:00 AM on Tuesday 27 Jan 2015 (Local Time) from CYQF Reporting Station
Scattered Clouds Scattered Clouds  
Wind Chill: 25°   Ceiling: Unl
Heat Index: 25°   Visibility: 15mi
Dew Point: 25°   Wind: 3mph
Humidity: 100%   Direction: 250°WSW
Pressure: 29.75"   Gusts: NA
Location:  51.67°N, 114.13°W
Report Text: CYQF 271000Z 25003KT 200V270 15SM SCT240 M04/M04 A2975 RMK CI4 SLP114
Loading
Personal Weather Stations






























Interactive Weather Map New forecast layout! Learn more

10-Day Weather Forecast

Advertisements
Track Severe Weather on mobile